DET weather

Coleman A. Young Municipal Airport
Detroit, Michigan, United States

Public forecast

Using degrees Fahrenheit for public forecast. Weather courtesy of forecast.io.

Current aviation weather report (METAR) for Coleman A. Young Municipal Airport

Retrieved 2019/12/08 06:53 UTC (48 minutes ago):

KDET 080653Z 19007KT 10SM OVC085 02/M03 A3024 RMK AO2 SLP248 T00171033

Aviation forecast (TAF) for Coleman A. Young Municipal Airport

Retrieved 2019/12/08 06:36 UTC (1 hour ago):

TAF KDET 080535Z 0806/0906 18007KT P6SM BKN100 FM081200 20011KT P6SM OVC120 FM081600 22013G20KT P6SM OVC015 FM090300 20008KT 5SM -SHRA BR OVC008